M.o.m. — WDE6166 — position and weather

sailwx.info

Track history (hours):
 
Tides and Currents Weather Stations Pressure Air Temp Water Temp Dewpoint Dewpoint Depression Visibility Wind Speed Wind Dir Waves Ship Positions

M.o.m.

Owner: Anderson, Carl W, Lopez Island, WA. More information available from US FCC via Universal Licensing System and Coast Guard Vessel Documentation Center.

Last reported at 2014-Sep-27 16:20 UTC. Time now 2014-Oct-25 22:50 UTC.
Position N 48°31' W 122°55'.
Warning: this ship's position is 28 days out of date.

Length 12 m.

Type: Sailing vessel. MMSI: 367376770.

Date/timePositionNaut miles runAvg speedWind from/ knotsBaromVisibWave heightAir tempDewpointWater temp
2014-Sep-27 16:20N 48°31' W 122°55'0 0.1
2014-Sep-27 15:32N 48°31' W 122°55'0 0.0
2014-Sep-25 22:14N 48°31' W 122°55'0 0.0
2014-Sep-25 21:26N 48°31' W 122°55'1 1.4
2014-Sep-25 20:33N 48°32' W 122°57'2 1.6
2014-Sep-25 19:33N 48°30' W 122°58'2 1.7
2014-Sep-25 18:30N 48°32' W 122°57'2 0.1
2014-Sep-25 01:19N 48°34' W 122°59'0 0.6
2014-Sep-25 00:33N 48°34' W 122°59'2 1.9
2014-Sep-24 23:33N 48°32' W 122°58'2 2.2
2014-Sep-24 22:31N 48°31' W 122°55'  
2014-Sep-22 03:32N 48°31' W 122°55'0 0.0
2014-Sep-22 02:32N 48°31' W 122°55'0 0.0
2014-Sep-22 01:32N 48°31' W 122°55'2 2.4
2014-Sep-22 00:33N 48°33' W 122°55'2 2.5
2014-Sep-21 23:33N 48°33' W 122°51'1 1.0
2014-Sep-21 22:33N 48°34' W 122°53'1 1.2
2014-Sep-21 21:34N 48°34' W 122°54'2 2.0
2014-Sep-21 20:33N 48°32' W 122°56'1 0.1
2014-Sep-20 23:32N 48°31' W 122°55'1 1.4
2014-Sep-20 22:33N 48°30' W 122°57'3 2.6
2014-Sep-20 21:33N 48°29' W 122°60'2 2.2
2014-Sep-20 20:33N 48°30' W 122°58'2 1.9
2014-Sep-20 19:32N 48°31' W 122°55'  
2014-Sep-18 04:26N 48°31' W 122°55'0 0.0
2014-Sep-18 03:32N 48°31' W 122°55'0 0.0
2014-Sep-18 02:32N 48°31' W 122°55'0 0.0
2014-Sep-18 01:32N 48°31' W 122°55'3 2.8
2014-Sep-18 00:33N 48°33' W 122°58'6 5.3
2014-Sep-17 23:28N 48°38' W 123°02'  
Track history (hours):
 
Tides and Currents Weather Stations Pressure Air Temp Water Temp Dewpoint Dewpoint Depression Visibility Wind Speed Wind Dir Waves Ship Positions

M.o.m.

Owner: Anderson, Carl W, Lopez Island, WA. More information available from US FCC via Universal Licensing System and Coast Guard Vessel Documentation Center.

Last reported at 2014-Sep-27 16:20 UTC. Time now 2014-Oct-25 22:50 UTC.
Position N 48°31' W 122°55'.
Warning: this ship's position is 28 days out of date.

Length 12 m.

Type: Sailing vessel. MMSI: 367376770.

Date/timePositionNaut miles runAvg speedWind from/ knotsBaromVisibWave heightAir tempDewpointWater temp
2014-Sep-27 16:20N 48°31' W 122°55'0 0.1
2014-Sep-27 15:32N 48°31' W 122°55'0 0.0
2014-Sep-25 22:14N 48°31' W 122°55'0 0.0
2014-Sep-25 21:26N 48°31' W 122°55'1 1.4
2014-Sep-25 20:33N 48°32' W 122°57'2 1.6
2014-Sep-25 19:33N 48°30' W 122°58'2 1.7
2014-Sep-25 18:30N 48°32' W 122°57'2 0.1
2014-Sep-25 01:19N 48°34' W 122°59'0 0.6
2014-Sep-25 00:33N 48°34' W 122°59'2 1.9
2014-Sep-24 23:33N 48°32' W 122°58'2 2.2
2014-Sep-24 22:31N 48°31' W 122°55'  
2014-Sep-22 03:32N 48°31' W 122°55'0 0.0
2014-Sep-22 02:32N 48°31' W 122°55'0 0.0
2014-Sep-22 01:32N 48°31' W 122°55'2 2.4
2014-Sep-22 00:33N 48°33' W 122°55'2 2.5
2014-Sep-21 23:33N 48°33' W 122°51'1 1.0
2014-Sep-21 22:33N 48°34' W 122°53'1 1.2
2014-Sep-21 21:34N 48°34' W 122°54'2 2.0
2014-Sep-21 20:33N 48°32' W 122°56'1 0.1
2014-Sep-20 23:32N 48°31' W 122°55'1 1.4
2014-Sep-20 22:33N 48°30' W 122°57'3 2.6
2014-Sep-20 21:33N 48°29' W 122°60'2 2.2
2014-Sep-20 20:33N 48°30' W 122°58'2 1.9
2014-Sep-20 19:32N 48°31' W 122°55'  
2014-Sep-18 04:26N 48°31' W 122°55'0 0.0
2014-Sep-18 03:32N 48°31' W 122°55'0 0.0
2014-Sep-18 02:32N 48°31' W 122°55'0 0.0
2014-Sep-18 01:32N 48°31' W 122°55'3 2.8
2014-Sep-18 00:33N 48°33' W 122°58'6 5.3
2014-Sep-17 23:28N 48°38' W 123°02'  

Dump ship's entire track history